Terminal Aerodrome Forecast
Issued by NWS

Home | Current Version | Previous Version | Text Only | Print | Product List | Glossary On
Versions: 1 2 3 4 5 6 7 8 9 10 11 12 13
000
FTUS42 TJSJ 260020 AAA
TAFJPS
TAF AMD
TJPS 260020Z 2600/2624 06007KT P6SM SCT030 SCT050
      TEMPO 2601/2604 5SM SHRA SCT025 BKN050
     FM261500 14014KT P6SM VCSH SCT025 BKN060
     FM262300 05007KT P6SM VCSH SCT022 BKN060
      AMD NOT SKED TIL 260300=

USA.gov is the U.S. government's official web portal to all federal, state and local government web resources and services.